47G weather

Mayes Airport
Carson City, Michigan, United States

Public forecast

Using degrees Fahrenheit for public forecast. Weather courtesy of forecast.io.

METAR (pilot weather report)

Closest report is Gratiot Community Airport, 9.7 nm (18.0 km) ENE. Retrieved 2019/09/17 23:59 UTC (2 hours ago):

KAMN 172359Z AUTO 00000KT 7SM CLR 17/15 A3018 RMK AO2 T01700150 10217 20170

TAF (pilot weather forecast)

Forecast is more than 12 hours old.

Closest forecast is Capital City Airport, 30.6 nm (56.6 km) SSE. Retrieved 2019/09/17 00:42 UTC (1 day ago):

TAF KLAN 172340Z 1800/1824 09006KT P6SM SKC FM180800 VRB04KT 3SM BR SCT025 FM181500 15008KT P6SM SCT035